Terminal Aerodrome Forecast
Issued by NWS Sioux Falls, SD

Home | Current Version | Previous Version | Graphics & Text | Print | Product List | Glossary On
Versions: 1 2 3 4 5 6 7 8 9 10 11 12 13 14 15 16 17 18 19
000
FTUS43 KFSD 211137
TAFHON
TAF
KHON 211137Z 2112/2212 11003KT 6SM BR SCT025 OVC040
      TEMPO 2112/2115 3SM -SHRA BR OVC022
     FM211500 15004KT 6SM BR VCSH OVC022
     FM211800 16004KT P6SM BKN035
     FM220000 13006KT P6SM SCT040
     FM220300 13005KT P6SM FEW150=

USA.gov is the U.S. government's official web portal to all federal, state and local government web resources and services.